sensor_id;sensor_type;location;lat;lon;timestamp;temperature;humidity
53045;DHT22;38930;52.766;6.884;2023-01-24T00:02:19;3.00;99.90
53045;DHT22;38930;52.766;6.884;2023-01-24T00:04:44;3.00;99.90
53045;DHT22;38930;52.766;6.884;2023-01-24T00:07:11;3.00;99.90
53045;DHT22;38930;52.766;6.884;2023-01-24T00:09:37;3.00;99.90
53045;DHT22;38930;52.766;6.884;2023-01-24T00:12:03;3.80;99.90
53045;DHT22;38930;52.766;6.884;2023-01-24T00:14:28;3.00;99.90
53045;DHT22;38930;52.766;6.884;2023-01-24T00:16:54;3.20;99.90
53045;DHT22;38930;52.766;6.884;2023-01-24T00:19:19;3.00;99.90
53045;DHT22;38930;52.766;6.884;2023-01-24T00:21:45;3.00;99.90
53045;DHT22;38930;52.766;6.884;2023-01-24T00:24:10;3.00;99.90
53045;DHT22;38930;52.766;6.884;2023-01-24T00:26:36;3.00;99.90
53045;DHT22;38930;52.766;6.884;2023-01-24T00:29:02;3.00;99.90
53045;DHT22;38930;52.766;6.884;2023-01-24T00:31:27;3.00;99.90
53045;DHT22;38930;52.766;6.884;2023-01-24T00:33:53;3.00;99.90
53045;DHT22;38930;52.766;6.884;2023-01-24T00:36:19;3.00;99.90
53045;DHT22;38930;52.766;6.884;2023-01-24T00:38:44;3.00;99.90
53045;DHT22;38930;52.766;6.884;2023-01-24T00:41:10;3.00;99.90
53045;DHT22;38930;52.766;6.884;2023-01-24T00:43:35;3.00;99.90
53045;DHT22;38930;52.766;6.884;2023-01-24T00:46:05;3.50;99.90
53045;DHT22;38930;52.766;6.884;2023-01-24T00:48:31;3.00;99.90
53045;DHT22;38930;52.766;6.884;2023-01-24T00:50:56;4.30;99.90
53045;DHT22;38930;52.766;6.884;2023-01-24T00:53:22;3.00;99.90
53045;DHT22;38930;52.766;6.884;2023-01-24T00:55:48;3.80;99.90
53045;DHT22;38930;52.766;6.884;2023-01-24T00:58:16;3.00;99.90
53045;DHT22;38930;52.766;6.884;2023-01-24T01:00:42;3.40;99.90
53045;DHT22;38930;52.766;6.884;2023-01-24T01:03:15;3.00;99.90
53045;DHT22;38930;52.766;6.884;2023-01-24T01:05:42;3.00;99.90
53045;DHT22;38930;52.766;6.884;2023-01-24T01:08:08;3.00;99.90
53045;DHT22;38930;52.766;6.884;2023-01-24T01:10:35;3.00;99.90
53045;DHT22;38930;52.766;6.884;2023-01-24T01:13:00;3.60;99.90
53045;DHT22;38930;52.766;6.884;2023-01-24T01:15:26;3.00;99.90
53045;DHT22;38930;52.766;6.884;2023-01-24T01:17:52;3.00;99.90
53045;DHT22;38930;52.766;6.884;2023-01-24T01:20:17;3.00;99.90
53045;DHT22;38930;52.766;6.884;2023-01-24T01:22:44;3.00;99.90
53045;DHT22;38930;52.766;6.884;2023-01-24T01:25:09;3.00;99.90
53045;DHT22;38930;52.766;6.884;2023-01-24T01:27:35;3.00;99.90
53045;DHT22;38930;52.766;6.884;2023-01-24T01:30:01;3.00;99.90
53045;DHT22;38930;52.766;6.884;2023-01-24T01:32:26;2.90;99.90
53045;DHT22;38930;52.766;6.884;2023-01-24T01:34:52;3.00;99.90
53045;DHT22;38930;52.766;6.884;2023-01-24T01:37:17;3.00;99.90
53045;DHT22;38930;52.766;6.884;2023-01-24T01:39:43;3.00;99.90
53045;DHT22;38930;52.766;6.884;2023-01-24T01:42:09;3.00;99.90
53045;DHT22;38930;52.766;6.884;2023-01-24T01:44:34;3.00;99.90
53045;DHT22;38930;52.766;6.884;2023-01-24T01:47:32;3.00;99.90
53045;DHT22;38930;52.766;6.884;2023-01-24T01:50:07;3.00;99.90
53045;DHT22;38930;52.766;6.884;2023-01-24T01:52:41;3.00;99.90
53045;DHT22;38930;52.766;6.884;2023-01-24T01:55:16;3.00;99.90
53045;DHT22;38930;52.766;6.884;2023-01-24T01:57:43;3.00;99.90
53045;DHT22;38930;52.766;6.884;2023-01-24T02:00:16;3.00;99.90
53045;DHT22;38930;52.766;6.884;2023-01-24T02:02:46;3.00;99.90
53045;DHT22;38930;52.766;6.884;2023-01-24T02:05:16;3.00;99.90
53045;DHT22;38930;52.766;6.884;2023-01-24T02:07:44;2.90;99.90
53045;DHT22;38930;52.766;6.884;2023-01-24T02:10:12;2.90;99.90
53045;DHT22;38930;52.766;6.884;2023-01-24T02:12:44;2.90;99.90
53045;DHT22;38930;52.766;6.884;2023-01-24T02:15:19;2.90;99.90
53045;DHT22;38930;52.766;6.884;2023-01-24T02:18:05;2.90;99.90
53045;DHT22;38930;52.766;6.884;2023-01-24T02:20:44;2.90;99.90
53045;DHT22;38930;52.766;6.884;2023-01-24T02:26:16;2.90;99.90
53045;DHT22;38930;52.766;6.884;2023-01-24T02:29:00;2.90;99.90
53045;DHT22;38930;52.766;6.884;2023-01-24T02:31:27;2.90;99.90
53045;DHT22;38930;52.766;6.884;2023-01-24T02:33:53;2.90;99.90
53045;DHT22;38930;52.766;6.884;2023-01-24T02:36:28;2.90;99.90
53045;DHT22;38930;52.766;6.884;2023-01-24T02:41:32;2.90;99.90
53045;DHT22;38930;52.766;6.884;2023-01-24T02:44:03;2.90;99.90
53045;DHT22;38930;52.766;6.884;2023-01-24T02:46:30;2.90;99.90
53045;DHT22;38930;52.766;6.884;2023-01-24T02:48:56;2.90;99.90
53045;DHT22;38930;52.766;6.884;2023-01-24T02:51:22;2.80;99.90
53045;DHT22;38930;52.766;6.884;2023-01-24T02:54:06;3.60;99.90
53045;DHT22;38930;52.766;6.884;2023-01-24T02:56:31;2.80;99.90
53045;DHT22;38930;52.766;6.884;2023-01-24T02:59:15;2.80;99.90
53045;DHT22;38930;52.766;6.884;2023-01-24T03:01:41;2.80;99.90
53045;DHT22;38930;52.766;6.884;2023-01-24T03:04:06;2.90;99.90
53045;DHT22;38930;52.766;6.884;2023-01-24T03:06:32;2.80;99.90
53045;DHT22;38930;52.766;6.884;2023-01-24T03:08:58;3.90;99.90
53045;DHT22;38930;52.766;6.884;2023-01-24T03:11:23;3.70;99.90
53045;DHT22;38930;52.766;6.884;2023-01-24T03:13:49;2.90;99.90
53045;DHT22;38930;52.766;6.884;2023-01-24T03:16:33;2.80;99.90
53045;DHT22;38930;52.766;6.884;2023-01-24T03:19:17;3.30;99.90
53045;DHT22;38930;52.766;6.884;2023-01-24T03:22:02;2.80;99.90
53045;DHT22;38930;52.766;6.884;2023-01-24T03:24:46;2.80;99.90
53045;DHT22;38930;52.766;6.884;2023-01-24T03:27:30;2.80;99.90
53045;DHT22;38930;52.766;6.884;2023-01-24T03:30:14;2.80;99.90
53045;DHT22;38930;52.766;6.884;2023-01-24T03:33:00;2.80;99.90
53045;DHT22;38930;52.766;6.884;2023-01-24T03:35:44;2.90;99.90
53045;DHT22;38930;52.766;6.884;2023-01-24T03:38:19;2.90;99.90
53045;DHT22;38930;52.766;6.884;2023-01-24T03:41:03;2.80;99.90
53045;DHT22;38930;52.766;6.884;2023-01-24T03:43:29;2.90;99.90
53045;DHT22;38930;52.766;6.884;2023-01-24T03:45:54;2.90;99.90
53045;DHT22;38930;52.766;6.884;2023-01-24T03:48:20;2.90;99.90
53045;DHT22;38930;52.766;6.884;2023-01-24T03:50:52;3.00;99.90
53045;DHT22;38930;52.766;6.884;2023-01-24T03:53:37;2.80;99.90
53045;DHT22;38930;52.766;6.884;2023-01-24T03:56:03;2.80;99.90
53045;DHT22;38930;52.766;6.884;2023-01-24T03:58:30;2.80;99.90
53045;DHT22;38930;52.766;6.884;2023-01-24T04:00:56;2.80;99.90
53045;DHT22;38930;52.766;6.884;2023-01-24T04:03:22;2.80;99.90
53045;DHT22;38930;52.766;6.884;2023-01-24T04:05:49;2.80;99.90
53045;DHT22;38930;52.766;6.884;2023-01-24T04:08:16;2.80;99.90
53045;DHT22;38930;52.766;6.884;2023-01-24T04:10:42;2.80;99.90
53045;DHT22;38930;52.766;6.884;2023-01-24T04:13:10;2.80;99.90
53045;DHT22;38930;52.766;6.884;2023-01-24T04:15:35;2.80;99.90
53045;DHT22;38930;52.766;6.884;2023-01-24T04:18:03;2.80;99.90
53045;DHT22;38930;52.766;6.884;2023-01-24T04:20:31;2.70;99.90
53045;DHT22;38930;52.766;6.884;2023-01-24T04:23:00;2.80;99.90
53045;DHT22;38930;52.766;6.884;2023-01-24T04:25:27;3.00;99.90
53045;DHT22;38930;52.766;6.884;2023-01-24T04:27:52;2.70;99.90
53045;DHT22;38930;52.766;6.884;2023-01-24T04:30:18;2.70;99.90
53045;DHT22;38930;52.766;6.884;2023-01-24T04:32:44;2.70;99.90
53045;DHT22;38930;52.766;6.884;2023-01-24T04:35:16;2.70;99.90
53045;DHT22;38930;52.766;6.884;2023-01-24T04:37:42;2.70;99.90
53045;DHT22;38930;52.766;6.884;2023-01-24T04:40:08;2.70;99.90
53045;DHT22;38930;52.766;6.884;2023-01-24T04:42:33;2.70;99.90
53045;DHT22;38930;52.766;6.884;2023-01-24T04:44:59;2.70;99.90
53045;DHT22;38930;52.766;6.884;2023-01-24T04:47:24;2.70;99.90
53045;DHT22;38930;52.766;6.884;2023-01-24T04:49:50;2.70;99.90
53045;DHT22;38930;52.766;6.884;2023-01-24T04:52:16;2.60;99.90
53045;DHT22;38930;52.766;6.884;2023-01-24T04:54:41;2.70;99.90
53045;DHT22;38930;52.766;6.884;2023-01-24T04:57:09;2.70;99.90
53045;DHT22;38930;52.766;6.884;2023-01-24T04:59:36;2.60;99.90
53045;DHT22;38930;52.766;6.884;2023-01-24T05:02:01;2.70;99.90
53045;DHT22;38930;52.766;6.884;2023-01-24T05:04:27;2.70;99.90
53045;DHT22;38930;52.766;6.884;2023-01-24T05:06:53;2.70;99.90
53045;DHT22;38930;52.766;6.884;2023-01-24T05:09:18;2.60;99.90
53045;DHT22;38930;52.766;6.884;2023-01-24T05:11:44;2.70;99.90
53045;DHT22;38930;52.766;6.884;2023-01-24T05:14:10;2.70;99.90
53045;DHT22;38930;52.766;6.884;2023-01-24T05:16:36;2.60;99.90
53045;DHT22;38930;52.766;6.884;2023-01-24T05:19:02;2.60;99.90
53045;DHT22;38930;52.766;6.884;2023-01-24T05:21:28;2.60;99.90
53045;DHT22;38930;52.766;6.884;2023-01-24T05:23:54;2.60;99.90
53045;DHT22;38930;52.766;6.884;2023-01-24T05:26:22;2.60;99.90
53045;DHT22;38930;52.766;6.884;2023-01-24T05:28:48;2.60;99.90
53045;DHT22;38930;52.766;6.884;2023-01-24T05:31:14;2.60;99.90
53045;DHT22;38930;52.766;6.884;2023-01-24T05:33:40;2.60;99.90
53045;DHT22;38930;52.766;6.884;2023-01-24T05:36:14;2.60;99.90
53045;DHT22;38930;52.766;6.884;2023-01-24T05:38:41;2.60;99.90
53045;DHT22;38930;52.766;6.884;2023-01-24T05:41:09;2.60;99.90
53045;DHT22;38930;52.766;6.884;2023-01-24T05:43:35;2.70;99.90
53045;DHT22;38930;52.766;6.884;2023-01-24T05:46:04;2.60;99.90
53045;DHT22;38930;52.766;6.884;2023-01-24T05:48:30;2.60;99.90
53045;DHT22;38930;52.766;6.884;2023-01-24T05:51:04;2.60;99.90
53045;DHT22;38930;52.766;6.884;2023-01-24T05:53:32;2.60;99.90
53045;DHT22;38930;52.766;6.884;2023-01-24T05:56:00;3.30;99.90
53045;DHT22;38930;52.766;6.884;2023-01-24T05:58:26;2.60;99.90
53045;DHT22;38930;52.766;6.884;2023-01-24T06:00:52;2.50;99.90
53045;DHT22;38930;52.766;6.884;2023-01-24T06:03:19;2.60;99.90
53045;DHT22;38930;52.766;6.884;2023-01-24T06:05:49;2.50;99.90
53045;DHT22;38930;52.766;6.884;2023-01-24T06:08:15;2.50;99.90
53045;DHT22;38930;52.766;6.884;2023-01-24T06:10:41;2.50;99.90
53045;DHT22;38930;52.766;6.884;2023-01-24T06:13:07;2.50;99.90
53045;DHT22;38930;52.766;6.884;2023-01-24T06:15:33;2.50;99.90
53045;DHT22;38930;52.766;6.884;2023-01-24T06:17:58;2.50;99.90
53045;DHT22;38930;52.766;6.884;2023-01-24T06:20:24;2.70;99.90
53045;DHT22;38930;52.766;6.884;2023-01-24T06:22:56;2.50;99.90
53045;DHT22;38930;52.766;6.884;2023-01-24T06:25:25;2.50;99.90
53045;DHT22;38930;52.766;6.884;2023-01-24T06:27:51;2.40;99.90
53045;DHT22;38930;52.766;6.884;2023-01-24T06:30:18;2.40;99.90
53045;DHT22;38930;52.766;6.884;2023-01-24T06:33:14;2.50;99.90
53045;DHT22;38930;52.766;6.884;2023-01-24T06:36:03;2.50;99.90
53045;DHT22;38930;52.766;6.884;2023-01-24T06:38:31;2.50;99.90
53045;DHT22;38930;52.766;6.884;2023-01-24T06:41:00;2.50;99.90
53045;DHT22;38930;52.766;6.884;2023-01-24T06:43:26;2.50;99.90
53045;DHT22;38930;52.766;6.884;2023-01-24T06:45:52;2.50;99.90
53045;DHT22;38930;52.766;6.884;2023-01-24T06:48:18;2.50;99.90
53045;DHT22;38930;52.766;6.884;2023-01-24T06:50:44;2.50;99.90
53045;DHT22;38930;52.766;6.884;2023-01-24T06:53:10;2.50;99.90
53045;DHT22;38930;52.766;6.884;2023-01-24T06:55:36;2.40;99.90
53045;DHT22;38930;52.766;6.884;2023-01-24T06:58:03;2.50;99.90
53045;DHT22;38930;52.766;6.884;2023-01-24T07:00:29;2.70;99.90
53045;DHT22;38930;52.766;6.884;2023-01-24T07:03:02;2.50;99.90
53045;DHT22;38930;52.766;6.884;2023-01-24T07:05:31;2.40;99.90
53045;DHT22;38930;52.766;6.884;2023-01-24T07:07:57;2.40;99.90
53045;DHT22;38930;52.766;6.884;2023-01-24T07:10:23;2.80;99.90
53045;DHT22;38930;52.766;6.884;2023-01-24T07:12:54;2.40;99.90
53045;DHT22;38930;52.766;6.884;2023-01-24T07:15:20;2.40;99.90
53045;DHT22;38930;52.766;6.884;2023-01-24T07:20:13;2.40;99.90
53045;DHT22;38930;52.766;6.884;2023-01-24T07:22:40;2.40;99.90
53045;DHT22;38930;52.766;6.884;2023-01-24T07:25:18;2.30;99.90
53045;DHT22;38930;52.766;6.884;2023-01-24T07:27:45;2.40;99.90
53045;DHT22;38930;52.766;6.884;2023-01-24T07:30:13;2.30;99.90
53045;DHT22;38930;52.766;6.884;2023-01-24T07:32:38;2.40;99.90
53045;DHT22;38930;52.766;6.884;2023-01-24T07:35:05;2.40;99.90
53045;DHT22;38930;52.766;6.884;2023-01-24T07:37:31;2.30;99.90
53045;DHT22;38930;52.766;6.884;2023-01-24T07:39:57;2.30;99.90
53045;DHT22;38930;52.766;6.884;2023-01-24T07:42:23;2.30;99.90
53045;DHT22;38930;52.766;6.884;2023-01-24T07:44:48;2.30;99.90
53045;DHT22;38930;52.766;6.884;2023-01-24T07:47:14;2.30;99.90
53045;DHT22;38930;52.766;6.884;2023-01-24T07:49:40;2.30;99.90
53045;DHT22;38930;52.766;6.884;2023-01-24T07:52:05;2.30;99.90
53045;DHT22;38930;52.766;6.884;2023-01-24T07:54:31;2.40;99.90
53045;DHT22;38930;52.766;6.884;2023-01-24T07:56:56;2.30;99.90
53045;DHT22;38930;52.766;6.884;2023-01-24T07:59:22;2.30;99.90
53045;DHT22;38930;52.766;6.884;2023-01-24T08:01:47;2.30;99.90
53045;DHT22;38930;52.766;6.884;2023-01-24T08:04:13;2.30;99.90
53045;DHT22;38930;52.766;6.884;2023-01-24T08:06:39;2.30;99.90
53045;DHT22;38930;52.766;6.884;2023-01-24T08:09:25;2.30;99.90
53045;DHT22;38930;52.766;6.884;2023-01-24T08:11:52;2.30;99.90
53045;DHT22;38930;52.766;6.884;2023-01-24T08:14:17;3.10;99.90
53045;DHT22;38930;52.766;6.884;2023-01-24T08:16:43;2.50;99.90
53045;DHT22;38930;52.766;6.884;2023-01-24T08:19:08;2.30;99.90
53045;DHT22;38930;52.766;6.884;2023-01-24T08:21:34;2.30;99.90
53045;DHT22;38930;52.766;6.884;2023-01-24T08:23:59;2.30;99.90
53045;DHT22;38930;52.766;6.884;2023-01-24T08:26:25;2.30;99.90
53045;DHT22;38930;52.766;6.884;2023-01-24T08:28:50;2.30;99.90
53045;DHT22;38930;52.766;6.884;2023-01-24T08:31:16;2.30;99.90
53045;DHT22;38930;52.766;6.884;2023-01-24T08:33:42;2.30;99.90
53045;DHT22;38930;52.766;6.884;2023-01-24T08:36:07;2.90;99.90
53045;DHT22;38930;52.766;6.884;2023-01-24T08:38:33;2.30;99.90
53045;DHT22;38930;52.766;6.884;2023-01-24T08:41:02;2.50;99.90
53045;DHT22;38930;52.766;6.884;2023-01-24T08:43:28;2.30;99.90
53045;DHT22;38930;52.766;6.884;2023-01-24T08:45:54;2.40;99.90
53045;DHT22;38930;52.766;6.884;2023-01-24T08:48:20;2.40;99.90
53045;DHT22;38930;52.766;6.884;2023-01-24T08:50:46;2.40;99.90
53045;DHT22;38930;52.766;6.884;2023-01-24T08:53:12;2.70;99.90
53045;DHT22;38930;52.766;6.884;2023-01-24T08:55:37;2.40;99.90
53045;DHT22;38930;52.766;6.884;2023-01-24T08:58:04;2.40;99.90
53045;DHT22;38930;52.766;6.884;2023-01-24T09:00:30;2.40;99.90
53045;DHT22;38930;52.766;6.884;2023-01-24T09:02:56;2.40;99.90
53045;DHT22;38930;52.766;6.884;2023-01-24T09:05:26;2.40;99.90
53045;DHT22;38930;52.766;6.884;2023-01-24T09:07:52;3.00;99.90
53045;DHT22;38930;52.766;6.884;2023-01-24T09:10:17;2.40;99.90
53045;DHT22;38930;52.766;6.884;2023-01-24T09:12:43;2.40;99.90
53045;DHT22;38930;52.766;6.884;2023-01-24T09:15:09;2.40;99.90
53045;DHT22;38930;52.766;6.884;2023-01-24T09:17:36;2.40;99.90
53045;DHT22;38930;52.766;6.884;2023-01-24T09:20:01;2.40;99.90
53045;DHT22;38930;52.766;6.884;2023-01-24T09:22:27;2.40;99.90
53045;DHT22;38930;52.766;6.884;2023-01-24T09:24:53;2.40;99.90
53045;DHT22;38930;52.766;6.884;2023-01-24T09:27:18;2.40;99.90
53045;DHT22;38930;52.766;6.884;2023-01-24T09:29:44;2.30;99.90
53045;DHT22;38930;52.766;6.884;2023-01-24T09:32:10;2.30;99.90
53045;DHT22;38930;52.766;6.884;2023-01-24T09:34:35;2.30;99.90
53045;DHT22;38930;52.766;6.884;2023-01-24T09:37:01;2.30;99.90
53045;DHT22;38930;52.766;6.884;2023-01-24T09:39:27;2.40;99.90
53045;DHT22;38930;52.766;6.884;2023-01-24T09:44:34;2.40;99.90
53045;DHT22;38930;52.766;6.884;2023-01-24T09:47:13;2.40;99.90
53045;DHT22;38930;52.766;6.884;2023-01-24T09:49:41;2.40;99.90
53045;DHT22;38930;52.766;6.884;2023-01-24T09:52:12;3.00;99.90
53045;DHT22;38930;52.766;6.884;2023-01-24T09:54:48;2.40;99.90
53045;DHT22;38930;52.766;6.884;2023-01-24T09:57:26;2.40;99.90
53045;DHT22;38930;52.766;6.884;2023-01-24T09:59:56;2.40;99.90
53045;DHT22;38930;52.766;6.884;2023-01-24T10:02:23;2.40;99.90
53045;DHT22;38930;52.766;6.884;2023-01-24T10:04:50;2.50;99.90
53045;DHT22;38930;52.766;6.884;2023-01-24T10:07:40;2.50;99.90
53045;DHT22;38930;52.766;6.884;2023-01-24T10:10:33;2.50;99.90
53045;DHT22;38930;52.766;6.884;2023-01-24T10:15:52;2.60;99.90
53045;DHT22;38930;52.766;6.884;2023-01-24T10:18:27;2.60;99.90
53045;DHT22;38930;52.766;6.884;2023-01-24T10:21:19;2.60;99.90
53045;DHT22;38930;52.766;6.884;2023-01-24T10:23:52;2.70;99.90
53045;DHT22;38930;52.766;6.884;2023-01-24T10:26:23;2.60;99.90
53045;DHT22;38930;52.766;6.884;2023-01-24T10:28:55;2.60;99.90
53045;DHT22;38930;52.766;6.884;2023-01-24T10:31:37;2.60;99.90
53045;DHT22;38930;52.766;6.884;2023-01-24T10:34:16;3.00;99.90
53045;DHT22;38930;52.766;6.884;2023-01-24T10:36:54;2.60;99.90
53045;DHT22;38930;52.766;6.884;2023-01-24T10:39:22;2.60;99.90
53045;DHT22;38930;52.766;6.884;2023-01-24T10:41:47;2.60;99.90
53045;DHT22;38930;52.766;6.884;2023-01-24T10:44:15;2.60;99.90
53045;DHT22;38930;52.766;6.884;2023-01-24T10:49:41;2.60;99.90
53045;DHT22;38930;52.766;6.884;2023-01-24T10:52:16;2.60;99.90
53045;DHT22;38930;52.766;6.884;2023-01-24T10:54:47;2.60;99.90
53045;DHT22;38930;52.766;6.884;2023-01-24T10:57:37;2.50;99.90
53045;DHT22;38930;52.766;6.884;2023-01-24T11:02:52;2.60;99.90
53045;DHT22;38930;52.766;6.884;2023-01-24T11:05:19;2.60;99.90
53045;DHT22;38930;52.766;6.884;2023-01-24T11:12:47;2.60;99.90
53045;DHT22;38930;52.766;6.884;2023-01-24T11:15:29;2.60;99.90
53045;DHT22;38930;52.766;6.884;2023-01-24T11:18:25;2.60;99.90
53045;DHT22;38930;52.766;6.884;2023-01-24T11:21:15;2.60;99.90
53045;DHT22;38930;52.766;6.884;2023-01-24T11:23:41;2.60;99.90
53045;DHT22;38930;52.766;6.884;2023-01-24T11:28:56;2.60;99.90
53045;DHT22;38930;52.766;6.884;2023-01-24T11:31:37;2.70;99.90
53045;DHT22;38930;52.766;6.884;2023-01-24T11:39:16;2.70;99.90
53045;DHT22;38930;52.766;6.884;2023-01-24T11:41:55;3.40;99.90
53045;DHT22;38930;52.766;6.884;2023-01-24T11:44:33;2.70;99.90
53045;DHT22;38930;52.766;6.884;2023-01-24T11:47:17;2.70;99.90
53045;DHT22;38930;52.766;6.884;2023-01-24T11:53:31;2.70;99.90
53045;DHT22;38930;52.766;6.884;2023-01-24T12:01:10;2.60;99.90
53045;DHT22;38930;52.766;6.884;2023-01-24T12:04:01;2.60;99.90
53045;DHT22;38930;52.766;6.884;2023-01-24T12:06:55;2.60;99.90
53045;DHT22;38930;52.766;6.884;2023-01-24T12:09:28;2.60;99.90
53045;DHT22;38930;52.766;6.884;2023-01-24T12:22:48;2.60;99.90
53045;DHT22;38930;52.766;6.884;2023-01-24T12:25:32;2.30;99.90
53045;DHT22;38930;52.766;6.884;2023-01-24T12:28:04;2.60;99.90
53045;DHT22;38930;52.766;6.884;2023-01-24T12:30:43;2.60;99.90
53045;DHT22;38930;52.766;6.884;2023-01-24T12:35:40;2.60;99.90
53045;DHT22;38930;52.766;6.884;2023-01-24T12:38:36;2.70;99.90
53045;DHT22;38930;52.766;6.884;2023-01-24T12:44:22;2.60;99.90
53045;DHT22;38930;52.766;6.884;2023-01-24T12:55:03;2.60;99.90
53045;DHT22;38930;52.766;6.884;2023-01-24T12:58:01;2.70;99.90
53045;DHT22;38930;52.766;6.884;2023-01-24T13:00:32;2.70;99.90
53045;DHT22;38930;52.766;6.884;2023-01-24T13:11:45;2.60;99.90
53045;DHT22;38930;52.766;6.884;2023-01-24T13:14:30;2.60;99.90
53045;DHT22;38930;52.766;6.884;2023-01-24T13:17:25;2.50;99.90
53045;DHT22;38930;52.766;6.884;2023-01-24T13:25:44;2.50;99.90
53045;DHT22;38930;52.766;6.884;2023-01-24T13:28:20;2.40;99.90
53045;DHT22;38930;52.766;6.884;2023-01-24T13:33:41;2.40;99.90
53045;DHT22;38930;52.766;6.884;2023-01-24T13:36:19;2.50;99.90
53045;DHT22;38930;52.766;6.884;2023-01-24T13:38:46;2.50;99.90
53045;DHT22;38930;52.766;6.884;2023-01-24T13:41:38;2.50;99.90
53045;DHT22;38930;52.766;6.884;2023-01-24T13:49:32;2.50;99.90
53045;DHT22;38930;52.766;6.884;2023-01-24T13:52:02;2.50;99.90
53045;DHT22;38930;52.766;6.884;2023-01-24T13:54:42;2.60;99.90
53045;DHT22;38930;52.766;6.884;2023-01-24T13:57:16;2.50;99.90
53045;DHT22;38930;52.766;6.884;2023-01-24T14:02:41;2.50;99.90
53045;DHT22;38930;52.766;6.884;2023-01-24T14:11:10;2.40;99.90
53045;DHT22;38930;52.766;6.884;2023-01-24T14:25:01;2.30;99.90
53045;DHT22;38930;52.766;6.884;2023-01-24T14:27:38;2.30;99.90
53045;DHT22;38930;52.766;6.884;2023-01-24T14:32:51;2.30;99.90
53045;DHT22;38930;52.766;6.884;2023-01-24T14:35:25;2.30;99.90
53045;DHT22;38930;52.766;6.884;2023-01-24T14:37:51;2.30;99.90
53045;DHT22;38930;52.766;6.884;2023-01-24T14:40:27;2.30;99.90
53045;DHT22;38930;52.766;6.884;2023-01-24T14:42:58;2.20;99.90
53045;DHT22;38930;52.766;6.884;2023-01-24T14:45:28;2.20;99.90
53045;DHT22;38930;52.766;6.884;2023-01-24T14:47:54;2.20;99.90
53045;DHT22;38930;52.766;6.884;2023-01-24T14:50:26;2.60;99.90
53045;DHT22;38930;52.766;6.884;2023-01-24T14:52:53;2.30;99.90
53045;DHT22;38930;52.766;6.884;2023-01-24T14:55:37;2.20;99.90
53045;DHT22;38930;52.766;6.884;2023-01-24T14:58:22;2.30;99.90
53045;DHT22;38930;52.766;6.884;2023-01-24T15:00:50;2.20;99.90
53045;DHT22;38930;52.766;6.884;2023-01-24T15:03:22;2.40;99.90
53045;DHT22;38930;52.766;6.884;2023-01-24T15:05:57;2.20;99.90
53045;DHT22;38930;52.766;6.884;2023-01-24T15:08:23;2.20;99.90
53045;DHT22;38930;52.766;6.884;2023-01-24T15:13:49;2.10;99.90
53045;DHT22;38930;52.766;6.884;2023-01-24T15:16:18;2.10;99.90
53045;DHT22;38930;52.766;6.884;2023-01-24T15:18:50;2.10;99.90
53045;DHT22;38930;52.766;6.884;2023-01-24T15:21:40;2.50;99.90
53045;DHT22;38930;52.766;6.884;2023-01-24T15:24:26;2.00;99.90
53045;DHT22;38930;52.766;6.884;2023-01-24T15:26:52;2.00;99.90
53045;DHT22;38930;52.766;6.884;2023-01-24T15:35:19;2.00;99.90
53045;DHT22;38930;52.766;6.884;2023-01-24T15:37:46;2.00;99.90
53045;DHT22;38930;52.766;6.884;2023-01-24T15:40:19;2.00;99.90
53045;DHT22;38930;52.766;6.884;2023-01-24T15:42:48;2.00;99.90
53045;DHT22;38930;52.766;6.884;2023-01-24T15:45:36;2.00;99.90
53045;DHT22;38930;52.766;6.884;2023-01-24T15:48:13;2.00;99.90
53045;DHT22;38930;52.766;6.884;2023-01-24T15:50:52;1.90;99.90
53045;DHT22;38930;52.766;6.884;2023-01-24T15:53:41;1.90;99.90
53045;DHT22;38930;52.766;6.884;2023-01-24T15:56:17;1.90;99.90
53045;DHT22;38930;52.766;6.884;2023-01-24T15:58:46;2.30;99.90
53045;DHT22;38930;52.766;6.884;2023-01-24T16:01:12;1.80;99.90
53045;DHT22;38930;52.766;6.884;2023-01-24T16:03:37;1.90;99.90
53045;DHT22;38930;52.766;6.884;2023-01-24T16:06:03;1.80;99.90
53045;DHT22;38930;52.766;6.884;2023-01-24T16:08:29;1.80;99.90
53045;DHT22;38930;52.766;6.884;2023-01-24T16:10:55;1.90;99.90
53045;DHT22;38930;52.766;6.884;2023-01-24T16:15:55;1.80;99.90
53045;DHT22;38930;52.766;6.884;2023-01-24T16:18:21;1.80;99.90
53045;DHT22;38930;52.766;6.884;2023-01-24T16:20:47;1.80;99.90
53045;DHT22;38930;52.766;6.884;2023-01-24T16:23:12;1.80;99.90
53045;DHT22;38930;52.766;6.884;2023-01-24T16:25:38;1.80;99.90
53045;DHT22;38930;52.766;6.884;2023-01-24T16:28:04;2.50;99.90
53045;DHT22;38930;52.766;6.884;2023-01-24T16:30:30;1.70;99.90
53045;DHT22;38930;52.766;6.884;2023-01-24T16:32:56;1.70;99.90
53045;DHT22;38930;52.766;6.884;2023-01-24T16:35:22;1.70;99.90
53045;DHT22;38930;52.766;6.884;2023-01-24T16:37:48;1.60;99.90
53045;DHT22;38930;52.766;6.884;2023-01-24T16:40:16;1.60;99.90
53045;DHT22;38930;52.766;6.884;2023-01-24T16:42:45;1.90;99.90
53045;DHT22;38930;52.766;6.884;2023-01-24T16:45:19;1.60;99.90
53045;DHT22;38930;52.766;6.884;2023-01-24T16:47:44;1.60;99.90
53045;DHT22;38930;52.766;6.884;2023-01-24T16:50:11;1.60;99.90
53045;DHT22;38930;52.766;6.884;2023-01-24T16:52:37;1.60;99.90
53045;DHT22;38930;52.766;6.884;2023-01-24T16:55:04;1.90;99.90
53045;DHT22;38930;52.766;6.884;2023-01-24T16:57:30;1.60;99.90
53045;DHT22;38930;52.766;6.884;2023-01-24T16:59:56;1.60;99.90
53045;DHT22;38930;52.766;6.884;2023-01-24T17:02:21;1.60;99.90
53045;DHT22;38930;52.766;6.884;2023-01-24T17:04:47;1.60;99.90
53045;DHT22;38930;52.766;6.884;2023-01-24T17:07:13;1.60;99.90
53045;DHT22;38930;52.766;6.884;2023-01-24T17:09:39;2.10;99.90
53045;DHT22;38930;52.766;6.884;2023-01-24T17:12:05;1.60;99.90
53045;DHT22;38930;52.766;6.884;2023-01-24T17:14:33;1.60;99.90
53045;DHT22;38930;52.766;6.884;2023-01-24T17:16:59;1.60;99.90
53045;DHT22;38930;52.766;6.884;2023-01-24T17:19:25;1.60;99.90
53045;DHT22;38930;52.766;6.884;2023-01-24T17:21:50;1.60;99.90
53045;DHT22;38930;52.766;6.884;2023-01-24T17:24:16;1.70;99.90
53045;DHT22;38930;52.766;6.884;2023-01-24T17:26:41;1.70;99.90
53045;DHT22;38930;52.766;6.884;2023-01-24T17:29:07;1.70;99.90
53045;DHT22;38930;52.766;6.884;2023-01-24T17:31:33;1.70;99.90
53045;DHT22;38930;52.766;6.884;2023-01-24T17:33:58;1.70;99.90
53045;DHT22;38930;52.766;6.884;2023-01-24T17:36:24;1.70;99.90
53045;DHT22;38930;52.766;6.884;2023-01-24T17:38:52;1.70;99.90
53045;DHT22;38930;52.766;6.884;2023-01-24T17:41:20;1.70;99.90
53045;DHT22;38930;52.766;6.884;2023-01-24T17:43:47;1.70;99.90
53045;DHT22;38930;52.766;6.884;2023-01-24T17:46:14;1.70;99.90
53045;DHT22;38930;52.766;6.884;2023-01-24T17:48:40;1.60;99.90
53045;DHT22;38930;52.766;6.884;2023-01-24T17:51:14;1.70;99.90
53045;DHT22;38930;52.766;6.884;2023-01-24T17:53:43;1.70;99.90
53045;DHT22;38930;52.766;6.884;2023-01-24T17:56:10;1.70;99.90
53045;DHT22;38930;52.766;6.884;2023-01-24T17:58:37;1.70;99.90
53045;DHT22;38930;52.766;6.884;2023-01-24T18:01:03;1.70;99.90
53045;DHT22;38930;52.766;6.884;2023-01-24T18:03:29;1.70;99.90
53045;DHT22;38930;52.766;6.884;2023-01-24T18:05:55;1.70;99.90